Weather History for Oscoda, MI

Change the Weather History Date:

Saturday, November 9, 2013

  Actual Average Record
Temperature  
Mean Temperature 42 °F -  
Max Temperature 49 °F 45 °F 71 °F (1999)
Min Temperature 34 °F 30 °F 14 °F (2003)
Degree Days  
Heating Degree Days 24    
Moisture  
Dew Point 36 °F    
Average Humidity 74    
Maximum Humidity 90    
Minimum Humidity 60    
Precipitation  
Precipitation 0.01 in - - ()
Sea Level Pressure  
Sea Level Pressure 29.82 in    
Wind  
Wind Speed 10 mph (SSW)    
Max Wind Speed 22 mph    
Max Gust Speed 29 mph    
Visibility 10 miles    
Events Rain    
Averages and records for this station are not official NWS values.
T = Trace of Precipitation, MM = Missing Value Source: NWS Daily Summary

Daily Weather History Graph

Daily Weather History Graph

Search for Another Location

Airport:

Trip Planner

Search our weather history database for the weather conditions in past years. The results will help you decide how hot, cold, wet, or windy it might be!

Date:

Astronomy

Nov. 09, 2013 Rise Set
Actual Time 7:22 AM EST 5:12 PM EST
Civil Twilight 6:51 AM EST 5:43 PM EST
Nautical Twilight 6:16 AM EST 6:18 PM EST
Astronomical Twilight 5:42 AM EST 6:52 PM EST
Moon 12:55 PM EST (11/9) 11:44 PM EST (11/9)
Length of Visible Light 10h 52m
Length of Day
9h 50m
Waxing Crescent, 44% of the Moon is Illuminated
Nov 9
Waxing Crescent
Nov 10
First Quarter
Nov 17
Full
Nov 25
Last Quarter
Dec 2
New

Hourly Weather History & Observations

Time (EST) Temp. Windchill Dew Point Humidity Pressure Visibility Wind Dir Wind Speed Gust Speed Precip Events Conditions
12:14 AM 34.5 °F 30.4 °F 28.6 °F 79% 30.12 in 10.0 mi South 4.6 mph - N/A   Overcast
12:34 AM 35.1 °F 31.0 °F 29.3 °F 80% 30.12 in 10.0 mi SSW 4.6 mph - N/A   Overcast
12:54 AM 35.4 °F 32.6 °F 29.1 °F 78% 30.11 in 10.0 mi South 3.5 mph - N/A   Overcast
1:14 AM 35.6 °F - 28.4 °F 75% 30.10 in 10.0 mi Calm Calm - N/A   Overcast
1:34 AM 36.5 °F - 29.5 °F 76% 30.09 in 10.0 mi Calm Calm - N/A   Overcast
1:54 AM 35.6 °F - 30.6 °F 82% 30.09 in 10.0 mi Calm Calm - N/A   Overcast
2:14 AM 38.1 °F 32.9 °F 31.5 °F 77% 30.08 in 10.0 mi South 6.9 mph - N/A   Overcast
2:34 AM 39.2 °F 35.9 °F 32.0 °F 75% 30.06 in 10.0 mi SE 4.6 mph - N/A   Overcast
2:54 AM 39.6 °F 35.4 °F 32.0 °F 74% 30.05 in 10.0 mi SSE 5.8 mph - N/A   Overcast
3:14 AM 39.7 °F 34.3 °F 32.4 °F 75% 30.04 in 10.0 mi South 8.1 mph - N/A   Overcast
3:34 AM 39.9 °F 35.1 °F 32.5 °F 75% 30.03 in 10.0 mi SSE 6.9 mph - N/A   Overcast
3:53 AM 40.3 °F 37.1 °F 32.4 °F 73% 30.03 in 10.0 mi SSE 4.6 mph - N/A   Overcast
4:14 AM 40.5 °F 36.5 °F 32.5 °F 73% 30.00 in 10.0 mi SE 5.8 mph - N/A   Overcast
4:34 AM 41.2 °F 36.0 °F 32.9 °F 72% 29.99 in 10.0 mi SSE 8.1 mph - N/A   Overcast
4:53 AM 41.5 °F 35.9 °F 33.1 °F 72% 29.97 in 10.0 mi SSE 9.2 mph - N/A   Overcast
5:14 AM 41.9 °F 35.9 °F 33.3 °F 71% 29.94 in 10.0 mi SSE 10.4 mph 16.1 mph N/A   Overcast
5:34 AM 42.3 °F 35.9 °F 33.3 °F 70% 29.94 in 10.0 mi South 11.5 mph 17.3 mph N/A Rain Light Rain
5:53 AM 41.4 °F 36.2 °F 35.4 °F 79% 29.92 in 10.0 mi SSE 8.1 mph 16.1 mph N/A Rain Light Rain
6:14 AM 40.6 °F 35.4 °F 36.7 °F 86% 29.90 in 10.0 mi South 8.1 mph - N/A Rain Light Rain
6:34 AM 41.0 °F 35.2 °F 36.5 °F 84% 29.88 in 10.0 mi SSE 9.2 mph - 0.01 in Rain Light Rain
6:53 AM 41.4 °F 33.6 °F 35.6 °F 80% 29.87 in 10.0 mi SSE 15.0 mph - 0.01 in   Light Drizzle
7:14 AM 41.9 °F 34.3 °F 34.3 °F 75% 29.86 in 10.0 mi SSE 15.0 mph 24.2 mph N/A   Overcast
7:34 AM 42.4 °F 35.7 °F 33.6 °F 71% 29.85 in 10.0 mi South 12.7 mph 21.9 mph N/A   Overcast
7:53 AM 42.3 °F 35.5 °F 33.8 °F 72% 29.85 in 10.0 mi South 12.7 mph 21.9 mph N/A Rain Rain
8:14 AM 41.9 °F 35.0 °F 34.7 °F 76% 29.83 in 10.0 mi South 12.7 mph 21.9 mph N/A Rain Light Rain
8:34 AM 42.3 °F 35.1 °F 33.8 °F 72% 29.82 in 10.0 mi South 13.8 mph 23.0 mph N/A   Overcast
8:53 AM 42.8 °F 35.4 °F 33.4 °F 70% 29.80 in 10.0 mi South 15.0 mph 20.7 mph N/A   Overcast
9:14 AM 43.7 °F 37.7 °F 33.8 °F 68% 29.79 in 10.0 mi South 11.5 mph 20.7 mph N/A   Overcast
9:34 AM 44.4 °F 37.2 °F 34.0 °F 67% 29.78 in 10.0 mi South 16.1 mph 21.9 mph N/A   Overcast
9:53 AM 44.8 °F 38.3 °F 34.3 °F 67% 29.77 in 10.0 mi South 13.8 mph 21.9 mph N/A   Overcast
10:14 AM 45.9 °F 39.4 °F 34.9 °F 66% 29.76 in 10.0 mi SSW 15.0 mph 20.7 mph N/A   Overcast
10:34 AM 46.2 °F 39.5 °F 34.7 °F 64% 29.75 in 10.0 mi SSW 16.1 mph 21.9 mph N/A   Overcast
10:53 AM 46.6 °F - 34.5 °F 63% 29.74 in 10.0 mi SSW 11.5 mph 21.9 mph N/A   Overcast
11:14 AM 47.5 °F - 35.1 °F 62% 29.73 in 10.0 mi SSW 12.7 mph 18.4 mph N/A   Overcast
11:34 AM 48.2 °F - 35.1 °F 60% 29.73 in 10.0 mi SSW 15.0 mph 21.9 mph N/A   Overcast
11:54 AM 48.4 °F - 35.8 °F 62% 29.72 in 10.0 mi SSW 11.5 mph - N/A   Overcast
12:14 PM 48.6 °F - 36.1 °F 62% 29.70 in 10.0 mi SSW 17.3 mph - N/A   Overcast
12:34 PM 48.7 °F - 36.7 °F 63% 29.70 in 10.0 mi SSW 15.0 mph 18.4 mph N/A   Overcast
12:54 PM 49.3 °F - 37.6 °F 64% 29.69 in 10.0 mi South 11.5 mph - N/A   Overcast
1:14 PM 49.5 °F - 37.9 °F 65% 29.68 in 10.0 mi SSW 11.5 mph 17.3 mph N/A   Overcast
1:34 PM 49.6 °F - 38.3 °F 65% 29.68 in 10.0 mi SSW 11.5 mph - N/A   Overcast
1:54 PM 49.6 °F - 38.5 °F 65% 29.68 in 10.0 mi SSW 10.4 mph 16.1 mph N/A   Overcast
2:14 PM 49.6 °F - 37.9 °F 64% 29.68 in 10.0 mi SSW 12.7 mph - N/A   Overcast
2:34 PM 49.5 °F - 38.3 °F 65% 29.67 in 10.0 mi SSW 10.4 mph - N/A   Overcast
2:54 PM 49.5 °F - 38.8 °F 67% 29.67 in 10.0 mi SSW 11.5 mph - N/A   Overcast
3:14 PM 49.3 °F - 39.4 °F 69% 29.66 in 10.0 mi SSW 8.1 mph - N/A   Overcast
3:34 PM 49.1 °F - 39.9 °F 71% 29.67 in 10.0 mi SSW 9.2 mph - N/A   Overcast
3:54 PM 49.1 °F - 40.3 °F 72% 29.67 in 10.0 mi SW 10.4 mph - N/A   Overcast
4:14 PM 48.9 °F - 41.4 °F 75% 29.68 in 10.0 mi WSW 13.8 mph 18.4 mph N/A   Overcast
4:33 PM 49.1 °F - 40.6 °F 73% 29.69 in 10.0 mi West 16.1 mph 24.2 mph N/A   Overcast
4:54 PM 46.9 °F - 42.3 °F 84% 29.69 in 5.0 mi WSW 20.7 mph 25.3 mph N/A   Drizzle
5:14 PM 46.0 °F 39.6 °F 43.0 °F 89% 29.70 in 5.0 mi WSW 15.0 mph - N/A Rain Rain
5:33 PM 45.7 °F 39.1 °F 43.0 °F 90% 29.70 in 7.0 mi WSW 15.0 mph 21.9 mph N/A   Drizzle
5:54 PM 45.7 °F 38.6 °F 42.4 °F 88% 29.71 in 10.0 mi WSW 17.3 mph 23.0 mph N/A   Overcast
6:14 PM 45.5 °F 38.6 °F 42.1 °F 88% 29.72 in 10.0 mi WSW 16.1 mph 21.9 mph N/A Rain Rain
6:33 PM 45.5 °F 38.6 °F 41.0 °F 84% 29.72 in 10.0 mi West 16.1 mph 23.0 mph N/A   Overcast
6:54 PM 45.3 °F 38.7 °F 40.3 °F 83% 29.73 in 10.0 mi WSW 15.0 mph 21.9 mph N/A   Overcast
7:14 PM 45.5 °F 38.1 °F 40.1 °F 81% 29.73 in 10.0 mi WSW 18.4 mph 25.3 mph N/A   Overcast
7:33 PM 45.7 °F 38.8 °F 39.6 °F 79% 29.73 in 10.0 mi WSW 16.1 mph 25.3 mph N/A   Overcast
7:54 PM 45.1 °F 37.3 °F 39.7 °F 81% 29.74 in 7.0 mi West 19.6 mph 28.8 mph N/A Rain Light Rain
8:14 PM 44.1 °F 36.8 °F 40.5 °F 87% 29.74 in 7.0 mi West 16.1 mph 25.3 mph N/A Rain Rain
8:33 PM 43.5 °F 36.1 °F 40.5 °F 89% 29.74 in 7.0 mi West 16.1 mph 19.6 mph N/A   Light Drizzle
8:54 PM 43.5 °F 36.7 °F 39.0 °F 84% 29.75 in 10.0 mi West 13.8 mph 23.0 mph N/A   Overcast
9:14 PM 43.7 °F 36.0 °F 38.1 °F 81% 29.76 in 10.0 mi West 17.3 mph 25.3 mph N/A   Overcast
9:34 PM 43.7 °F 36.0 °F 37.0 °F 77% 29.77 in 10.0 mi West 17.3 mph 25.3 mph N/A   Overcast
9:54 PM 43.7 °F 36.3 °F 35.8 °F 74% 29.77 in 10.0 mi West 16.1 mph 27.6 mph N/A   Overcast
10:14 PM 43.7 °F 35.7 °F 35.4 °F 73% 29.78 in 10.0 mi West 18.4 mph 28.8 mph N/A   Overcast
10:34 PM 43.0 °F 34.5 °F 34.9 °F 73% 29.78 in 10.0 mi West 19.6 mph 24.2 mph N/A   Overcast
10:54 PM 43.2 °F 34.2 °F 33.4 °F 69% 29.78 in 10.0 mi West 21.9 mph 28.8 mph N/A   Overcast
11:14 PM 43.0 °F 35.1 °F 32.9 °F 68% 29.78 in 10.0 mi West 17.3 mph 27.6 mph N/A   Overcast
11:34 PM 42.8 °F 35.8 °F 32.5 °F 67% 29.78 in 10.0 mi West 13.8 mph 20.7 mph N/A   Overcast
11:54 PM 42.8 °F 34.5 °F 32.2 °F 66% 29.78 in 10.0 mi West 18.4 mph 25.3 mph N/A   Overcast